Time;durP1;ratioP1;P1;durP2;ratioP2;P2;SDS_P1;SDS_P2;PMS_P1;PMS_P2;Temp;Humidity;BMP_temperature;BMP_pressure;BME280_temperature;BME280_humidity;BME280_pressure;Samples;Min_cycle;Max_cycle;Signal;HPM_P1;HPM_P2
2023/08/26 04:02:11;;;;;;;3.17;1.53;;;21.10;88.20;;;;;;5252051;23;21003;-72
2023/08/26 04:04:37;;;;;;;2.50;1.73;;;21.00;88.50;;;;;;4920077;29;20827;-71
2023/08/26 04:07:04;;;;;;;2.80;1.63;;;21.00;88.20;;;;;;4920101;29;20938;-70
2023/08/26 04:09:31;;;;;;;3.30;2.30;;;21.00;88.50;;;;;;4920299;29;20531;-70
2023/08/26 04:11:58;;;;;;;3.03;1.70;;;21.00;88.00;;;;;;4920230;29;20464;-70
2023/08/26 04:14:24;;;;;;;2.60;2.00;;;21.00;88.20;;;;;;4920740;29;20459;-70
2023/08/26 04:16:52;;;;;;;2.63;1.87;;;21.00;87.90;;;;;;4920164;29;20499;-70
2023/08/26 04:19:19;;;;;;;2.37;1.90;;;21.00;87.90;;;;;;4920984;29;20449;-70
2023/08/26 04:21:47;;;;;;;3.60;2.10;;;21.00;87.80;;;;;;4920085;29;20885;-70
2023/08/26 04:24:14;;;;;;;3.60;2.40;;;21.00;87.60;;;;;;4920098;29;20452;-70
2023/08/26 04:26:40;;;;;;;7.20;2.20;;;21.10;87.40;;;;;;4919998;29;20496;-70
2023/08/26 04:29:07;;;;;;;2.70;1.80;;;21.10;86.90;;;;;;4920010;29;20456;-71
2023/08/26 04:31:34;;;;;;;2.60;1.83;;;21.10;86.60;;;;;;4919536;29;21096;-70
2023/08/26 04:34:00;;;;;;;4.70;2.30;;;21.00;86.40;;;;;;4919905;29;20448;-71
2023/08/26 04:36:28;;;;;;;3.40;2.60;;;20.90;86.90;;;;;;4919870;29;20471;-71
2023/08/26 04:38:56;;;;;;;4.23;2.60;;;20.90;86.40;;;;;;4919847;29;20448;-71
2023/08/26 04:41:23;;;;;;;3.20;2.07;;;20.90;86.50;;;;;;4919422;29;20895;-70
2023/08/26 04:43:51;;;;;;;3.23;2.10;;;20.90;86.60;;;;;;4919714;29;20452;-71
2023/08/26 04:46:18;;;;;;;3.00;1.70;;;20.90;86.70;;;;;;4919705;29;20456;-70
2023/08/26 04:48:45;;;;;;;3.93;2.00;;;20.90;86.50;;;;;;4919633;29;20488;-70
2023/08/26 04:51:12;;;;;;;3.60;2.10;;;21.00;86.60;;;;;;4919456;29;20487;-71
2023/08/26 04:53:40;;;;;;;3.70;2.43;;;21.00;86.70;;;;;;4918890;29;20504;-70
2023/08/26 04:56:06;;;;;;;3.43;2.10;;;21.00;86.70;;;;;;4919504;29;20445;-70
2023/08/26 04:58:33;;;;;;;2.60;2.23;;;21.00;86.70;;;;;;4919452;29;20452;-70
2023/08/26 05:01:00;;;;;;;2.50;1.70;;;21.00;86.70;;;;;;4919152;29;20481;-70
2023/08/26 05:03:26;;;;;;;3.93;2.50;;;21.10;86.70;;;;;;4919406;29;20489;-69
2023/08/26 05:05:53;;;;;;;3.33;2.40;;;21.10;86.80;;;;;;4919367;29;20453;-70
2023/08/26 05:08:20;;;;;;;2.87;1.97;;;21.10;86.70;;;;;;4919295;29;20445;-70
2023/08/26 05:10:48;;;;;;;2.30;1.70;;;21.10;87.00;;;;;;4919141;29;20488;-70
2023/08/26 05:13:14;;;;;;;4.33;2.33;;;21.10;86.70;;;;;;4919225;29;20452;-70
2023/08/26 05:15:41;;;;;;;3.17;1.90;;;21.20;86.40;;;;;;4919174;29;20452;-70
2023/08/26 05:18:08;;;;;;;3.20;1.90;;;21.10;86.30;;;;;;4918796;29;20863;-70
2023/08/26 05:20:34;;;;;;;2.47;1.93;;;21.10;86.60;;;;;;4918993;29;20444;-70
2023/08/26 05:23:01;;;;;;;3.10;2.10;;;21.00;86.80;;;;;;4919057;29;20452;-70
2023/08/26 05:25:27;;;;;;;4.97;2.40;;;21.00;86.90;;;;;;4918983;29;20500;-70
2023/08/26 05:27:56;;;;;;;3.77;1.90;;;21.10;86.50;;;;;;4918945;29;20449;-70
2023/08/26 05:30:22;;;;;;;2.90;2.40;;;21.10;86.40;;;;;;4918716;29;20488;-70
2023/08/26 05:32:49;;;;;;;2.67;2.10;;;21.10;86.30;;;;;;4918874;29;20452;-70
2023/08/26 05:35:15;;;;;;;2.70;2.07;;;21.10;86.20;;;;;;4918791;29;20449;-70
2023/08/26 05:37:45;;;;;;;2.67;1.80;;;21.10;86.40;;;;;;4918728;29;20483;-70
2023/08/26 05:40:12;;;;;;;2.20;1.57;;;21.20;86.20;;;;;;4918683;29;20445;-71
2023/08/26 05:42:39;;;;;;;4.23;2.10;;;21.30;85.40;;;;;;4918609;29;20472;-70
2023/08/26 05:45:08;;;;;;;4.70;2.23;;;21.30;85.60;;;;;;4918646;29;20461;-70
2023/08/26 05:47:34;;;;;;;3.73;2.50;;;21.40;85.30;;;;;;4918560;29;20445;-70
2023/08/26 05:50:01;;;;;;;5.53;1.73;;;21.40;85.30;;;;;;4918109;29;21022;-69
2023/08/26 05:52:28;;;;;;;3.37;2.03;;;21.50;85.40;;;;;;4918418;29;20476;-70
2023/08/26 05:54:54;;;;;;;2.10;1.50;;;21.80;85.40;;;;;;4918180;29;20941;-70
2023/08/26 05:57:21;;;;;;;2.90;2.10;;;22.00;85.10;;;;;;4918374;29;20464;-70
2023/08/26 05:59:48;;;;;;;2.83;1.90;;;22.20;84.40;;;;;;4918359;29;20445;-70
2023/08/26 06:02:16;;;;;;;2.50;1.87;;;22.30;83.50;;;;;;4917938;29;20484;-70
2023/08/26 06:04:42;;;;;;;5.70;2.27;;;22.40;83.70;;;;;;4917438;29;20452;-70
2023/08/26 06:07:09;;;;;;;3.20;1.73;;;22.70;82.70;;;;;;4918180;29;20449;-70
2023/08/26 06:09:36;;;;;;;2.93;2.00;;;22.80;82.10;;;;;;4918179;29;20452;-70
2023/08/26 06:12:02;;;;;;;2.73;1.83;;;23.10;81.80;;;;;;4918041;29;20484;-70
2023/08/26 06:14:29;;;;;;;3.60;1.90;;;23.30;81.20;;;;;;4918144;29;20453;-70
2023/08/26 06:16:56;;;;;;;3.40;1.90;;;23.40;80.80;;;;;;4918016;29;20464;-70
2023/08/26 06:19:24;;;;;;;3.87;2.60;;;23.60;79.60;;;;;;4917988;29;20500;-70
2023/08/26 06:21:50;;;;;;;4.57;1.87;;;23.60;79.50;;;;;;4918420;29;20469;-70
2023/08/26 06:24:17;;;;;;;2.60;2.07;;;23.80;79.90;;;;;;4917905;29;20457;-70
2023/08/26 06:26:44;;;;;;;3.10;1.93;;;23.60;79.70;;;;;;4917845;29;20449;-70
2023/08/26 06:29:13;;;;;;;5.60;2.10;;;23.70;78.80;;;;;;4917844;29;20451;-71
2023/08/26 06:31:39;;;;;;;4.23;2.17;;;23.80;77.20;;;;;;4917635;29;20496;-70
2023/08/26 06:34:06;;;;;;;2.73;2.03;;;23.90;78.70;;;;;;4917711;29;20455;-72
2023/08/26 06:36:34;;;;;;;3.77;2.23;;;24.20;77.40;;;;;;4917682;29;20449;-72
2023/08/26 06:39:00;;;;;;;2.60;1.50;;;24.50;77.40;;;;;;4917753;29;20445;-72
2023/08/26 06:41:27;;;;;;;2.43;1.90;;;24.90;76.90;;;;;;4917581;29;20461;-72
2023/08/26 06:43:54;;;;;;;3.63;1.50;;;25.20;75.50;;;;;;4917631;29;20453;-72
2023/08/26 06:46:20;;;;;;;2.50;1.50;;;25.30;73.70;;;;;;4917584;29;20448;-72
2023/08/26 06:48:47;;;;;;;2.77;1.57;;;25.30;73.40;;;;;;4917684;29;20445;-72
2023/08/26 06:51:14;;;;;;;2.90;1.77;;;25.10;74.50;;;;;;4917631;29;20496;-73
2023/08/26 06:53:42;;;;;;;2.67;2.13;;;25.00;75.10;;;;;;4917462;29;20456;-72
2023/08/26 06:56:08;;;;;;;4.20;1.80;;;24.90;75.40;;;;;;4917405;29;20453;-72
2023/08/26 06:58:35;;;;;;;2.67;1.80;;;24.70;75.30;;;;;;4917398;29;20499;-72
2023/08/26 07:01:03;;;;;;;5.03;2.10;;;24.50;75.90;;;;;;4917208;29;20560;-72
2023/08/26 07:03:30;;;;;;;3.20;1.80;;;24.30;75.60;;;;;;4917564;29;20512;-72
2023/08/26 07:05:56;;;;;;;2.73;2.00;;;24.00;77.00;;;;;;4917366;29;20445;-72
2023/08/26 07:08:23;;;;;;;2.77;1.90;;;23.60;77.70;;;;;;4917302;29;20453;-72
2023/08/26 07:10:51;;;;;;;3.90;1.80;;;23.40;79.30;;;;;;4917089;29;20528;-72
2023/08/26 07:13:18;;;;;;;3.33;1.97;;;23.40;79.80;;;;;;4917254;29;20509;-72
2023/08/26 07:15:44;;;;;;;2.43;1.87;;;23.30;79.60;;;;;;4916979;29;20449;-71
2023/08/26 07:18:11;;;;;;;2.40;1.87;;;23.20;79.60;;;;;;4916746;29;20496;-72
2023/08/26 07:20:38;;;;;;;3.63;1.93;;;23.20;80.10;;;;;;4916755;29;20802;-71
2023/08/26 07:23:05;;;;;;;2.67;2.10;;;23.20;80.30;;;;;;4916786;29;20452;-71
2023/08/26 07:25:32;;;;;;;3.50;1.90;;;23.20;80.30;;;;;;4917038;29;20878;-72
2023/08/26 07:28:00;;;;;;;3.40;2.03;;;23.30;80.10;;;;;;4917245;29;20452;-71
2023/08/26 07:30:27;;;;;;;3.57;2.00;;;23.20;79.60;;;;;;4916979;29;20460;-71
2023/08/26 07:32:54;;;;;;;2.70;1.90;;;23.30;79.60;;;;;;4917173;29;20825;-71
2023/08/26 07:35:21;;;;;;;2.70;2.00;;;23.50;78.50;;;;;;4916870;29;20970;-71
2023/08/26 07:37:48;;;;;;;3.90;2.23;;;23.50;78.10;;;;;;4917077;29;20882;-72
2023/08/26 07:40:16;;;;;;;2.73;1.83;;;23.50;78.40;;;;;;4916788;29;20977;-71
2023/08/26 07:42:43;;;;;;;3.43;1.93;;;23.60;77.80;;;;;;4916741;29;20978;-71
2023/08/26 07:45:12;;;;;;;3.77;2.00;;;23.60;77.10;;;;;;4917240;29;20622;-72
2023/08/26 07:47:41;;;;;;;2.70;1.53;;;23.80;77.30;;;;;;4916985;29;20445;-72
2023/08/26 07:50:09;;;;;;;2.90;1.80;;;24.00;76.90;;;;;;4917552;29;20448;-71
2023/08/26 07:52:37;;;;;;;3.17;1.80;;;24.10;76.50;;;;;;4916494;29;21052;-71
2023/08/26 07:55:04;;;;;;;2.30;1.77;;;24.10;76.00;;;;;;4916930;29;20449;-71
2023/08/26 07:57:31;;;;;;;3.03;2.23;;;24.20;76.70;;;;;;4916575;29;20977;-71
2023/08/26 07:59:58;;;;;;;3.73;2.00;;;24.30;76.60;;;;;;4917015;29;20870;-72
2023/08/26 08:02:26;;;;;;;2.87;1.70;;;24.50;75.60;;;;;;4916372;29;20852;-72
2023/08/26 08:04:52;;;;;;;3.53;1.87;;;24.80;73.50;;;;;;4916853;29;20452;-72
2023/08/26 08:07:19;;;;;;;2.87;1.90;;;25.00;73.20;;;;;;4917097;29;20449;-72
2023/08/26 08:09:46;;;;;;;5.17;1.80;;;25.10;71.70;;;;;;4916707;29;20448;-72
2023/08/26 08:12:14;;;;;;;3.70;2.10;;;25.30;71.90;;;;;;4916298;29;20895;-71
2023/08/26 08:14:41;;;;;;;5.00;1.93;;;25.30;71.60;;;;;;4916453;29;20489;-72
2023/08/26 08:17:08;;;;;;;3.23;1.90;;;25.20;70.80;;;;;;4916903;29;20448;-72
2023/08/26 08:19:41;;;;;;;2.90;1.50;;;25.00;71.10;;;;;;4916615;29;20481;-72
2023/08/26 08:22:08;;;;;;;3.40;1.90;;;24.80;71.90;;;;;;4917595;29;20468;-72
2023/08/26 08:24:35;;;;;;;2.93;1.87;;;24.80;72.50;;;;;;4916934;29;20453;-72
2023/08/26 08:27:01;;;;;;;2.90;1.73;;;24.80;71.80;;;;;;4916704;29;20475;-72
2023/08/26 08:29:28;;;;;;;3.77;2.10;;;24.70;71.80;;;;;;4919177;29;20453;-72
2023/08/26 08:31:55;;;;;;;3.33;1.80;;;24.30;71.50;;;;;;4919853;29;20582;-71
2023/08/26 08:34:22;;;;;;;2.67;1.90;;;24.10;71.80;;;;;;4920038;29;20459;-73
2023/08/26 08:36:50;;;;;;;2.27;1.83;;;24.20;72.50;;;;;;4919648;29;20823;-72
2023/08/26 08:39:17;;;;;;;2.80;1.67;;;24.50;73.70;;;;;;4919672;29;20993;-72
2023/08/26 08:41:48;;;;;;;3.07;2.07;;;24.80;73.00;;;;;;4919935;29;20471;-72
2023/08/26 08:44:16;;;;;;;2.50;1.70;;;24.90;73.10;;;;;;4920175;29;20433;-72
2023/08/26 08:46:43;;;;;;;2.60;1.80;;;24.80;72.40;;;;;;4919489;29;20444;-72
2023/08/26 08:49:12;;;;;;;2.37;1.53;;;24.80;73.10;;;;;;4919829;29;20836;-72
2023/08/26 08:51:40;;;;;;;2.83;1.70;;;24.80;71.60;;;;;;4919313;29;20579;-72
2023/08/26 08:54:08;;;;;;;3.43;1.97;;;24.70;72.20;;;;;;4919680;29;20452;-73
2023/08/26 08:56:37;;;;;;;3.27;1.53;;;24.50;71.10;;;;;;4919620;29;20452;-72
2023/08/26 08:59:06;;;;;;;3.07;1.80;;;24.30;71.70;;;;;;4919516;29;20468;-73
2023/08/26 09:01:32;;;;;;;3.20;2.03;;;24.20;72.50;;;;;;4919166;29;20472;-73
2023/08/26 09:03:59;;;;;;;3.50;2.20;;;24.30;73.40;;;;;;4919121;29;20456;-73
2023/08/26 09:06:26;;;;;;;2.67;1.60;;;24.30;74.00;;;;;;4919379;29;20471;-72
2023/08/26 09:08:54;;;;;;;2.90;1.93;;;24.30;74.50;;;;;;4919307;29;20475;-73
2023/08/26 09:11:22;;;;;;;3.87;1.80;;;24.20;74.50;;;;;;4919414;29;21010;-73
2023/08/26 09:13:49;;;;;;;2.70;1.93;;;24.20;73.90;;;;;;4919196;29;20448;-72
2023/08/26 09:16:16;;;;;;;2.90;2.33;;;24.10;73.60;;;;;;4919266;29;20448;-73
2023/08/26 09:18:42;;;;;;;3.27;1.80;;;24.10;73.40;;;;;;4919145;29;20449;-71
2023/08/26 09:21:10;;;;;;;2.90;2.23;;;24.20;73.30;;;;;;4919035;29;20464;-72
2023/08/26 09:23:44;;;;;;;3.50;2.10;;;24.10;72.60;;;;;;4919132;29;20484;-72
2023/08/26 09:26:11;;;;;;;2.70;1.97;;;24.10;71.70;;;;;;4919049;29;20456;-71
2023/08/26 09:28:46;;;;;;;3.23;1.80;;;23.90;73.20;;;;;;4918984;29;20445;-74
2023/08/26 09:31:14;;;;;;;3.10;2.50;;;23.40;74.40;;;;;;4918822;29;20875;-73
2023/08/26 09:33:40;;;;;;;4.10;1.90;;;23.30;76.60;;;;;;4918880;29;20452;-74
2023/08/26 09:36:07;;;;;;;2.97;2.17;;;23.40;76.50;;;;;;4918440;29;20851;-72
2023/08/26 09:38:44;;;;;;;4.63;2.10;;;23.50;75.80;;;;;;4918795;29;20452;-74
2023/08/26 09:41:10;;;;;;;3.47;1.90;;;23.50;75.50;;;;;;4918644;29;20480;-69
2023/08/26 09:43:44;;;;;;;3.40;2.17;;;23.50;75.50;;;;;;4918693;29;20444;-72
2023/08/26 09:46:18;;;;;;;3.70;2.00;;;23.50;75.70;;;;;;4918585;29;20429;-71
2023/08/26 09:48:45;;;;;;;3.10;1.90;;;23.40;75.40;;;;;;4918580;29;20429;-71
2023/08/26 09:51:13;;;;;;;2.63;1.80;;;23.50;75.10;;;;;;4918407;29;20666;-70
2023/08/26 09:53:40;;;;;;;2.40;1.80;;;23.50;75.60;;;;;;4918528;29;20452;-72
2023/08/26 09:56:07;;;;;;;3.13;1.97;;;23.50;76.00;;;;;;4918504;29;20505;-71
2023/08/26 09:58:33;;;;;;;4.10;2.40;;;23.70;75.50;;;;;;4918141;29;20441;-72
2023/08/26 10:01:04;;;;;;;3.10;1.87;;;23.90;75.50;;;;;;4918063;29;20488;-71
2023/08/26 10:03:32;;;;;;;2.80;2.03;;;24.20;75.20;;;;;;4918348;29;20445;-73
2023/08/26 10:06:01;;;;;;;3.80;2.07;;;24.30;74.30;;;;;;4918252;29;20444;-73
2023/08/26 10:08:33;;;;;;;2.87;1.90;;;24.40;74.10;;;;;;4918198;29;20452;-73
2023/08/26 10:11:03;;;;;;;4.30;2.10;;;24.40;74.80;;;;;;4918156;29;20868;-73
2023/08/26 10:16:09;;;;;;;3.10;2.00;;;24.10;74.30;;;;;;4934927;29;20475;-78
2023/08/26 10:18:42;;;;;;;3.73;2.13;;;24.10;74.90;;;;;;4937210;29;20774;-78
2023/08/26 10:21:10;;;;;;;3.60;2.17;;;24.00;74.30;;;;;;4936973;29;20905;-78
2023/08/26 10:23:38;;;;;;;2.43;1.80;;;24.00;74.60;;;;;;4935781;29;20938;-78
2023/08/26 10:26:05;;;;;;;3.00;2.30;;;23.90;74.60;;;;;;4917947;29;20448;-77
2023/08/26 10:28:34;;;;;;;3.37;1.87;;;23.90;75.40;;;;;;4917967;29;20452;-77
2023/08/26 10:31:01;;;;;;;2.43;1.80;;;23.90;75.90;;;;;;4918371;29;20543;-76
2023/08/26 10:33:29;;;;;;;4.17;2.60;;;23.80;76.50;;;;;;4917712;29;20675;-76
2023/08/26 10:36:00;;;;;;;3.77;2.20;;;23.80;76.80;;;;;;4917778;29;20460;-77
2023/08/26 10:38:27;;;;;;;2.60;1.70;;;23.70;77.20;;;;;;4917432;29;20867;-77
2023/08/26 10:41:10;;;;;;;3.10;2.20;;;23.70;77.20;;;;;;4917388;29;21017;-76
2023/08/26 10:43:37;;;;;;;4.20;2.50;;;23.60;77.20;;;;;;4917849;29;20528;-75
2023/08/26 10:46:04;;;;;;;3.40;2.43;;;23.40;77.80;;;;;;4917282;29;20830;-77
2023/08/26 10:48:55;;;;;;;3.60;2.83;;;23.40;78.00;;;;;;4917548;29;20503;-75
2023/08/26 10:51:22;;;;;;;4.27;1.90;;;23.40;78.20;;;;;;4917036;29;20476;-77
2023/08/26 10:53:49;;;;;;;3.37;2.10;;;23.30;78.30;;;;;;4916979;29;20902;-75
2023/08/26 10:56:18;;;;;;;2.80;2.47;;;23.20;78.40;;;;;;4917406;29;20552;-76
2023/08/26 10:58:46;;;;;;;2.70;2.00;;;23.10;78.60;;;;;;4917356;29;20440;-76
2023/08/26 11:01:14;;;;;;;2.60;2.23;;;23.10;78.90;;;;;;4917345;29;20540;-76
2023/08/26 11:03:44;;;;;;;2.93;2.10;;;23.00;80.30;;;;;;4917264;29;20504;-76
2023/08/26 11:06:13;;;;;;;2.67;2.20;;;22.80;80.60;;;;;;4917310;29;20535;-76
2023/08/26 11:08:40;;;;;;;2.50;2.00;;;22.80;80.40;;;;;;4917289;29;20463;-75
2023/08/26 11:11:11;;;;;;;3.03;1.90;;;22.90;79.90;;;;;;4917201;29;20539;-75
2023/08/26 11:13:40;;;;;;;2.77;2.30;;;23.00;80.30;;;;;;4916812;29;21006;-76
2023/08/26 11:16:07;;;;;;;3.87;2.20;;;23.20;80.40;;;;;;4917151;29;20524;-75
2023/08/26 11:18:34;;;;;;;3.77;2.30;;;23.40;79.40;;;;;;4917115;29;20440;-75
2023/08/26 11:21:05;;;;;;;3.10;2.23;;;23.60;78.50;;;;;;4917122;29;20449;-74
2023/08/26 11:23:32;;;;;;;4.20;2.60;;;23.60;78.90;;;;;;4917055;29;20433;-76
2023/08/26 11:25:59;;;;;;;2.80;2.27;;;23.80;77.90;;;;;;4917109;29;20477;-76
2023/08/26 11:28:27;;;;;;;3.33;2.17;;;23.70;77.70;;;;;;4917075;29;20448;-76
2023/08/26 11:30:55;;;;;;;2.63;2.10;;;23.70;77.20;;;;;;4917047;29;20448;-75
2023/08/26 11:33:21;;;;;;;3.13;2.53;;;23.70;77.60;;;;;;4916993;29;20481;-76
2023/08/26 11:35:50;;;;;;;3.60;2.00;;;23.70;77.80;;;;;;4916946;29;20469;-76
2023/08/26 11:38:18;;;;;;;2.70;2.03;;;23.50;78.40;;;;;;4917012;29;20496;-76
2023/08/26 11:40:45;;;;;;;2.87;2.17;;;23.50;78.60;;;;;;4917053;29;20827;-76
2023/08/26 11:43:13;;;;;;;3.33;2.30;;;23.50;78.30;;;;;;4916952;29;20536;-76
2023/08/26 11:45:41;;;;;;;3.50;2.40;;;23.50;78.80;;;;;;4916832;29;20477;-76
2023/08/26 11:48:10;;;;;;;3.10;2.10;;;23.40;78.40;;;;;;4916889;29;20451;-75
2023/08/26 11:50:38;;;;;;;2.67;2.20;;;23.40;78.30;;;;;;4916957;29;20542;-75
2023/08/26 11:53:05;;;;;;;3.20;2.27;;;23.40;79.10;;;;;;4916882;29;20477;-75
2023/08/26 11:55:34;;;;;;;3.40;2.43;;;23.30;78.10;;;;;;4916815;29;20890;-76
2023/08/26 11:58:02;;;;;;;2.77;2.00;;;23.30;77.90;;;;;;4916856;29;20453;-76
2023/08/26 12:00:29;;;;;;;3.10;2.30;;;23.30;78.50;;;;;;4916803;29;20445;-75
2023/08/26 12:03:00;;;;;;;3.87;2.13;;;23.20;78.20;;;;;;4916610;29;20934;-76
2023/08/26 12:05:27;;;;;;;2.80;2.33;;;23.10;78.40;;;;;;4920489;29;20555;-76
2023/08/26 12:07:56;;;;;;;3.80;2.50;;;23.10;79.10;;;;;;4920392;29;20452;-76
2023/08/26 12:10:24;;;;;;;2.40;2.07;;;23.00;79.30;;;;;;4920912;29;20455;-76
2023/08/26 12:13:03;;;;;;;3.10;2.27;;;23.00;80.10;;;;;;4920706;29;20540;-76
2023/08/26 12:15:30;;;;;;;2.63;2.27;;;23.00;80.60;;;;;;4919805;29;20922;-76
2023/08/26 12:18:00;;;;;;;3.07;2.77;;;23.00;80.70;;;;;;4919906;29;20821;-76
2023/08/26 12:20:28;;;;;;;2.90;2.60;;;23.10;80.50;;;;;;4920184;29;20463;-76
2023/08/26 12:22:55;;;;;;;3.30;2.53;;;23.10;80.60;;;;;;4920124;29;20802;-76
2023/08/26 12:25:25;;;;;;;3.13;2.40;;;23.10;80.80;;;;;;4919990;29;20473;-77
2023/08/26 12:28:03;;;;;;;4.60;3.97;;;23.00;81.20;;;;;;4920397;29;20523;-77
2023/08/26 12:30:30;;;;;;;4.00;3.30;;;23.00;81.60;;;;;;4920181;29;20817;-77
2023/08/26 12:32:57;;;;;;;3.70;2.70;;;22.90;81.40;;;;;;4919875;29;20558;-78
2023/08/26 12:35:24;;;;;;;4.40;3.07;;;22.80;81.60;;;;;;4919956;29;20500;-75
2023/08/26 12:37:51;;;;;;;2.80;2.47;;;22.70;82.00;;;;;;4919925;29;20460;-76
2023/08/26 12:40:17;;;;;;;2.60;2.33;;;22.60;82.40;;;;;;4919911;29;20445;-76
2023/08/26 12:42:44;;;;;;;3.33;2.77;;;22.50;82.60;;;;;;4919800;29;20445;-76
2023/08/26 12:45:12;;;;;;;3.60;2.60;;;22.50;82.60;;;;;;4919611;29;20468;-75
2023/08/26 12:47:39;;;;;;;4.77;2.80;;;22.50;82.90;;;;;;4919690;29;20453;-77
2023/08/26 12:50:07;;;;;;;4.67;3.27;;;22.50;83.00;;;;;;4919376;29;20939;-76
2023/08/26 12:52:33;;;;;;;3.33;3.00;;;22.50;82.90;;;;;;4919578;29;20922;-75
2023/08/26 12:55:00;;;;;;;3.83;2.30;;;22.50;82.90;;;;;;4919457;29;20475;-74
2023/08/26 12:57:27;;;;;;;2.70;2.50;;;22.40;82.50;;;;;;4919576;29;20462;-75
2023/08/26 12:59:53;;;;;;;3.17;2.00;;;22.20;82.60;;;;;;4919478;29;20453;-75
2023/08/26 13:02:21;;;;;;;2.83;2.50;;;22.00;82.20;;;;;;4919422;29;20452;-76
2023/08/26 13:04:48;;;;;;;4.10;3.20;;;21.70;82.30;;;;;;4919348;29;20473;-75
2023/08/26 13:07:16;;;;;;;4.33;2.37;;;21.50;82.70;;;;;;4919365;29;20452;-75
2023/08/26 13:09:42;;;;;;;3.00;2.10;;;21.30;83.50;;;;;;4919366;29;20907;-75
2023/08/26 13:12:10;;;;;;;8.90;2.70;;;21.20;84.50;;;;;;4918962;29;20814;-75
2023/08/26 13:14:36;;;;;;;2.73;2.10;;;21.20;84.10;;;;;;4918469;29;20910;-76
2023/08/26 13:17:03;;;;;;;3.63;2.20;;;21.20;83.80;;;;;;4919170;29;20457;-75
2023/08/26 13:19:32;;;;;;;3.20;1.77;;;21.20;83.10;;;;;;4919191;29;20472;-75
2023/08/26 13:21:58;;;;;;;3.73;1.97;;;21.10;82.50;;;;;;4919143;29;20535;-74
2023/08/26 13:24:25;;;;;;;2.27;1.70;;;21.00;82.00;;;;;;4919027;29;20476;-75
2023/08/26 13:26:52;;;;;;;2.73;1.50;;;20.80;82.20;;;;;;4918874;29;20528;-75
2023/08/26 13:29:18;;;;;;;2.23;1.47;;;20.80;82.20;;;;;;4919007;29;20453;-75
2023/08/26 13:31:45;;;;;;;2.70;1.60;;;20.90;81.50;;;;;;4918917;29;20452;-76
2023/08/26 13:34:12;;;;;;;3.50;2.10;;;20.80;81.70;;;;;;4918740;29;20913;-75
2023/08/26 13:36:41;;;;;;;3.20;1.60;;;20.80;82.00;;;;;;4918855;29;20455;-76
2023/08/26 13:39:08;;;;;;;2.67;1.60;;;20.80;81.90;;;;;;4918887;29;20483;-72
2023/08/26 13:41:35;;;;;;;2.27;1.43;;;20.80;82.30;;;;;;4918803;29;20488;-77
2023/08/26 13:44:02;;;;;;;3.17;1.60;;;20.90;82.40;;;;;;4919646;29;20465;-76
2023/08/26 13:46:29;;;;;;;3.80;1.83;;;20.90;82.80;;;;;;4918662;29;20448;-76
2023/08/26 13:48:57;;;;;;;2.30;1.80;;;20.90;82.60;;;;;;4918592;29;20449;-76
2023/08/26 13:51:23;;;;;;;3.97;2.20;;;20.90;83.20;;;;;;4918649;29;20456;-75
2023/08/26 13:53:51;;;;;;;2.43;1.77;;;21.00;82.60;;;;;;4918363;29;20496;-76
2023/08/26 13:56:18;;;;;;;4.20;2.00;;;21.00;82.50;;;;;;4918539;29;20444;-77
2023/08/26 13:58:45;;;;;;;2.37;1.40;;;21.10;82.80;;;;;;4918489;29;20452;-76
2023/08/26 14:01:11;;;;;;;3.63;1.77;;;21.20;82.90;;;;;;4918370;29;20452;-75
2023/08/26 14:03:38;;;;;;;3.87;2.30;;;21.30;82.70;;;;;;4918231;29;20457;-76
2023/08/26 14:06:06;;;;;;;3.07;2.67;;;21.20;83.00;;;;;;4918433;29;20457;-77
2023/08/26 14:08:33;;;;;;;3.37;2.27;;;21.20;82.80;;;;;;4918316;29;20477;-76
2023/08/26 14:11:02;;;;;;;2.50;1.70;;;21.20;82.80;;;;;;4918321;29;20484;-76
2023/08/26 14:13:29;;;;;;;3.03;1.90;;;21.20;83.00;;;;;;4918011;29;20481;-77
2023/08/26 14:15:55;;;;;;;3.60;1.60;;;21.20;83.00;;;;;;4917781;29;20460;-76
2023/08/26 14:18:22;;;;;;;2.60;2.13;;;21.20;83.30;;;;;;4918012;29;20444;-76
2023/08/26 14:20:49;;;;;;;2.60;1.67;;;21.20;83.00;;;;;;4918199;29;20445;-74
2023/08/26 14:23:15;;;;;;;2.50;1.73;;;21.20;83.10;;;;;;4918008;29;20871;-75
2023/08/26 14:25:43;;;;;;;3.30;1.90;;;21.30;82.80;;;;;;4916869;29;20828;-74
2023/08/26 14:28:12;;;;;;;2.83;2.07;;;21.20;82.80;;;;;;4917505;29;20938;-75
2023/08/26 14:30:39;;;;;;;3.03;1.90;;;21.10;83.10;;;;;;4917876;29;20504;-75
2023/08/26 14:33:06;;;;;;;3.70;1.97;;;21.30;83.00;;;;;;4917745;29;20477;-76
2023/08/26 14:35:32;;;;;;;3.30;1.90;;;21.40;82.70;;;;;;4917766;29;20471;-76
2023/08/26 14:37:59;;;;;;;2.60;1.87;;;21.30;82.30;;;;;;4917855;29;20449;-75
2023/08/26 14:40:26;;;;;;;3.50;2.17;;;21.20;81.90;;;;;;4917725;29;20520;-75
2023/08/26 14:42:52;;;;;;;2.47;1.67;;;21.10;81.90;;;;;;4917669;29;20456;-76
2023/08/26 14:45:20;;;;;;;2.30;1.67;;;21.10;81.50;;;;;;4917615;29;20480;-74
2023/08/26 14:47:47;;;;;;;2.77;1.50;;;21.10;81.50;;;;;;4917636;29;20500;-74
2023/08/26 14:50:14;;;;;;;3.77;1.73;;;21.10;81.40;;;;;;4917553;29;20579;-74
2023/08/26 14:52:40;;;;;;;2.67;1.90;;;21.10;81.50;;;;;;4917595;29;20453;-74
2023/08/26 14:55:08;;;;;;;3.00;2.03;;;21.20;81.70;;;;;;4917477;29;20579;-76
2023/08/26 14:57:35;;;;;;;4.83;2.53;;;21.20;81.60;;;;;;4917601;29;20483;-76
2023/08/26 15:00:04;;;;;;;3.03;1.70;;;21.30;81.70;;;;;;4917180;29;21027;-75
2023/08/26 15:02:32;;;;;;;2.53;1.80;;;21.40;81.80;;;;;;4917485;29;20806;-76
2023/08/26 15:04:58;;;;;;;3.47;2.13;;;21.10;81.90;;;;;;4917840;29;20468;-76
2023/08/26 15:07:25;;;;;;;2.80;2.03;;;20.80;82.20;;;;;;4918408;29;20535;-75
2023/08/26 15:09:52;;;;;;;2.50;1.60;;;20.80;82.80;;;;;;4917425;29;20449;-75
2023/08/26 15:12:18;;;;;;;2.83;1.70;;;20.90;81.90;;;;;;4917278;29;20520;-75
2023/08/26 15:14:46;;;;;;;3.10;1.70;;;21.00;82.50;;;;;;4917184;29;20552;-75
2023/08/26 15:17:12;;;;;;;2.40;1.50;;;21.00;81.90;;;;;;4916882;29;20541;-75
2023/08/26 15:19:40;;;;;;;3.07;1.83;;;21.00;81.50;;;;;;4917207;29;20524;-74
2023/08/26 15:22:07;;;;;;;2.90;2.03;;;21.00;81.50;;;;;;4917128;29;20448;-74
2023/08/26 15:24:34;;;;;;;3.07;1.60;;;21.00;81.30;;;;;;4916794;29;20998;-75
2023/08/26 15:27:01;;;;;;;2.50;1.63;;;21.00;80.90;;;;;;4917074;29;20457;-75
2023/08/26 15:29:28;;;;;;;2.40;1.87;;;20.90;80.90;;;;;;4917085;29;20487;-76
2023/08/26 15:31:55;;;;;;;3.10;1.70;;;20.70;81.50;;;;;;4917030;29;20455;-76
2023/08/26 15:34:22;;;;;;;2.60;1.90;;;20.50;80.20;;;;;;4916929;29;20488;-74
2023/08/26 15:36:50;;;;;;;2.50;1.87;;;20.30;81.20;;;;;;4917129;29;20453;-74
2023/08/26 15:39:16;;;;;;;2.90;2.30;;;20.60;81.30;;;;;;4920974;29;20455;-75
2023/08/26 15:41:43;;;;;;;2.37;1.80;;;20.70;81.10;;;;;;4920918;29;20457;-74
2023/08/26 15:44:10;;;;;;;2.80;2.23;;;20.80;81.60;;;;;;4920805;29;20516;-74
2023/08/26 15:46:36;;;;;;;3.60;2.33;;;20.50;80.20;;;;;;4920782;29;20500;-76
2023/08/26 15:49:05;;;;;;;2.80;1.90;;;20.40;81.10;;;;;;4920793;29;20444;-75
2023/08/26 15:51:31;;;;;;;2.70;1.70;;;20.40;80.60;;;;;;4920792;29;20556;-74
2023/08/26 15:53:59;;;;;;;2.40;1.60;;;20.20;82.10;;;;;;4921171;29;20912;-75
2023/08/26 15:56:26;;;;;;;3.20;2.07;;;20.20;82.60;;;;;;4920311;29;20825;-75
2023/08/26 15:58:53;;;;;;;2.93;2.00;;;19.90;82.80;;;;;;4920684;29;20828;-76
2023/08/26 16:01:21;;;;;;;3.27;2.47;;;19.70;83.60;;;;;;4920550;29;20519;-76
2023/08/26 16:03:48;;;;;;;2.40;2.00;;;19.90;83.90;;;;;;4920437;29;20448;-76
2023/08/26 16:06:15;;;;;;;2.87;1.80;;;20.00;83.60;;;;;;4920459;29;20482;-74
2023/08/26 16:08:43;;;;;;;2.50;1.97;;;20.20;82.50;;;;;;4920427;29;20453;-75
2023/08/26 16:11:11;;;;;;;3.33;1.80;;;20.30;82.70;;;;;;4920954;29;20444;-75
2023/08/26 16:13:38;;;;;;;2.93;2.00;;;20.50;82.60;;;;;;4920015;29;20978;-74
2023/08/26 16:16:05;;;;;;;3.13;2.00;;;20.60;82.10;;;;;;4920466;29;20463;-75
2023/08/26 16:18:32;;;;;;;2.80;2.07;;;20.40;80.80;;;;;;4919950;29;20938;-75
2023/08/26 16:20:59;;;;;;;3.00;1.90;;;20.10;81.60;;;;;;4920219;29;20452;-76
2023/08/26 16:23:26;;;;;;;3.47;1.60;;;20.20;82.40;;;;;;4919869;29;20829;-75
2023/08/26 16:25:53;;;;;;;2.63;2.03;;;20.50;82.10;;;;;;4920083;29;20531;-72
2023/08/26 16:28:21;;;;;;;3.60;1.93;;;20.40;82.20;;;;;;4920115;29;20449;-75
2023/08/26 16:30:47;;;;;;;3.13;2.00;;;20.30;82.50;;;;;;4920054;29;20543;-74
2023/08/26 16:33:14;;;;;;;4.20;2.27;;;20.20;81.70;;;;;;4920620;29;20508;-75
2023/08/26 16:35:41;;;;;;;2.87;2.20;;;20.20;82.60;;;;;;4919935;29;20496;-75
2023/08/26 16:38:08;;;;;;;2.80;1.83;;;19.90;83.40;;;;;;4919942;29;20500;-74
2023/08/26 16:40:34;;;;;;;2.77;2.20;;;20.00;84.00;;;;;;4919870;29;20448;-75
2023/08/26 16:43:01;;;;;;;3.63;2.40;;;19.90;84.50;;;;;;4919826;29;20444;-74
2023/08/26 16:45:30;;;;;;;2.50;2.13;;;20.00;84.30;;;;;;4919715;29;20512;-74
2023/08/26 16:47:56;;;;;;;3.17;2.20;;;20.00;83.40;;;;;;4919730;29;20441;-75
2023/08/26 16:50:23;;;;;;;3.93;2.53;;;19.80;84.20;;;;;;4918478;29;20808;-75
2023/08/26 16:52:50;;;;;;;4.00;2.50;;;19.60;85.30;;;;;;4919672;29;20595;-74